sensor_id;sensor_type;location;lat;lon;timestamp;P1;durP1;ratioP1;P2;durP2;ratioP2
30185;SDS011;31152;49.190;8.122;2022-11-20T00:01:31;18.30;;;10.82;;
30185;SDS011;31152;49.190;8.122;2022-11-20T00:04:00;18.88;;;10.68;;
30185;SDS011;31152;49.190;8.122;2022-11-20T00:06:27;21.25;;;10.65;;
30185;SDS011;31152;49.190;8.122;2022-11-20T00:08:58;18.73;;;10.57;;
30185;SDS011;31152;49.190;8.122;2022-11-20T00:11:27;20.42;;;11.43;;
30185;SDS011;31152;49.190;8.122;2022-11-20T00:13:58;16.83;;;10.60;;
30185;SDS011;31152;49.190;8.122;2022-11-20T00:16:27;18.10;;;9.98;;
30185;SDS011;31152;49.190;8.122;2022-11-20T00:18:55;18.00;;;10.27;;
30185;SDS011;31152;49.190;8.122;2022-11-20T00:21:25;15.32;;;9.02;;
30185;SDS011;31152;49.190;8.122;2022-11-20T00:23:53;16.55;;;9.68;;
30185;SDS011;31152;49.190;8.122;2022-11-20T00:26:26;18.17;;;10.38;;
30185;SDS011;31152;49.190;8.122;2022-11-20T00:28:54;18.88;;;10.18;;
30185;SDS011;31152;49.190;8.122;2022-11-20T00:31:23;19.42;;;10.60;;
30185;SDS011;31152;49.190;8.122;2022-11-20T00:33:50;19.58;;;10.80;;
30185;SDS011;31152;49.190;8.122;2022-11-20T00:36:18;21.05;;;12.05;;
30185;SDS011;31152;49.190;8.122;2022-11-20T00:38:51;18.13;;;9.82;;
30185;SDS011;31152;49.190;8.122;2022-11-20T00:41:18;17.98;;;10.05;;
30185;SDS011;31152;49.190;8.122;2022-11-20T00:43:47;19.15;;;10.82;;
30185;SDS011;31152;49.190;8.122;2022-11-20T00:46:15;19.45;;;10.55;;
30185;SDS011;31152;49.190;8.122;2022-11-20T00:48:43;20.15;;;10.10;;
30185;SDS011;31152;49.190;8.122;2022-11-20T00:51:14;18.75;;;11.40;;
30185;SDS011;31152;49.190;8.122;2022-11-20T00:53:43;21.35;;;11.13;;
30185;SDS011;31152;49.190;8.122;2022-11-20T00:56:11;20.25;;;10.70;;
30185;SDS011;31152;49.190;8.122;2022-11-20T00:58:41;21.35;;;11.02;;
30185;SDS011;31152;49.190;8.122;2022-11-20T01:01:14;20.48;;;10.90;;
30185;SDS011;31152;49.190;8.122;2022-11-20T01:03:46;23.20;;;11.57;;
30185;SDS011;31152;49.190;8.122;2022-11-20T01:06:18;21.20;;;11.38;;
30185;SDS011;31152;49.190;8.122;2022-11-20T01:08:52;25.30;;;12.48;;
30185;SDS011;31152;49.190;8.122;2022-11-20T01:11:24;28.65;;;13.23;;
30185;SDS011;31152;49.190;8.122;2022-11-20T01:13:53;25.23;;;11.70;;
30185;SDS011;31152;49.190;8.122;2022-11-20T01:16:23;26.17;;;13.70;;
30185;SDS011;31152;49.190;8.122;2022-11-20T01:18:55;26.42;;;13.50;;
30185;SDS011;31152;49.190;8.122;2022-11-20T01:21:27;26.20;;;13.35;;
30185;SDS011;31152;49.190;8.122;2022-11-20T01:23:56;29.23;;;14.13;;
30185;SDS011;31152;49.190;8.122;2022-11-20T01:26:24;28.60;;;14.02;;
30185;SDS011;31152;49.190;8.122;2022-11-20T01:28:52;25.73;;;13.32;;
30185;SDS011;31152;49.190;8.122;2022-11-20T01:31:24;28.70;;;14.30;;
30185;SDS011;31152;49.190;8.122;2022-11-20T01:34:01;28.17;;;13.38;;
30185;SDS011;31152;49.190;8.122;2022-11-20T01:36:35;29.00;;;14.27;;
30185;SDS011;31152;49.190;8.122;2022-11-20T01:39:04;26.30;;;13.57;;
30185;SDS011;31152;49.190;8.122;2022-11-20T01:41:42;30.83;;;14.30;;
30185;SDS011;31152;49.190;8.122;2022-11-20T01:47:14;29.30;;;13.88;;
30185;SDS011;31152;49.190;8.122;2022-11-20T01:50:05;37.05;;;18.90;;
30185;SDS011;31152;49.190;8.122;2022-11-20T01:52:45;31.00;;;14.68;;
30185;SDS011;31152;49.190;8.122;2022-11-20T01:55:21;30.42;;;13.82;;
30185;SDS011;31152;49.190;8.122;2022-11-20T01:57:51;27.27;;;13.40;;
30185;SDS011;31152;49.190;8.122;2022-11-20T02:00:19;26.73;;;12.75;;
30185;SDS011;31152;49.190;8.122;2022-11-20T02:02:53;23.58;;;12.35;;
30185;SDS011;31152;49.190;8.122;2022-11-20T02:05:36;23.30;;;13.07;;
30185;SDS011;31152;49.190;8.122;2022-11-20T02:08:12;28.48;;;13.82;;
30185;SDS011;31152;49.190;8.122;2022-11-20T02:10:42;26.17;;;13.48;;
30185;SDS011;31152;49.190;8.122;2022-11-20T02:13:09;23.45;;;13.20;;
30185;SDS011;31152;49.190;8.122;2022-11-20T02:15:54;23.20;;;13.15;;
30185;SDS011;31152;49.190;8.122;2022-11-20T02:18:21;24.92;;;13.57;;
30185;SDS011;31152;49.190;8.122;2022-11-20T02:20:50;26.35;;;13.23;;
30185;SDS011;31152;49.190;8.122;2022-11-20T02:23:37;26.63;;;13.30;;
30185;SDS011;31152;49.190;8.122;2022-11-20T02:26:19;24.02;;;13.40;;
30185;SDS011;31152;49.190;8.122;2022-11-20T02:28:51;24.35;;;13.40;;
30185;SDS011;31152;49.190;8.122;2022-11-20T02:31:18;25.38;;;13.63;;
30185;SDS011;31152;49.190;8.122;2022-11-20T02:33:45;26.42;;;13.20;;
30185;SDS011;31152;49.190;8.122;2022-11-20T02:36:12;27.52;;;13.65;;
30185;SDS011;31152;49.190;8.122;2022-11-20T02:38:42;29.45;;;15.20;;
30185;SDS011;31152;49.190;8.122;2022-11-20T02:41:11;24.98;;;13.27;;
30185;SDS011;31152;49.190;8.122;2022-11-20T02:43:43;25.58;;;13.50;;
30185;SDS011;31152;49.190;8.122;2022-11-20T02:46:09;23.73;;;12.80;;
30185;SDS011;31152;49.190;8.122;2022-11-20T02:48:39;26.02;;;13.18;;
30185;SDS011;31152;49.190;8.122;2022-11-20T02:51:05;24.75;;;13.95;;
30185;SDS011;31152;49.190;8.122;2022-11-20T02:53:32;25.95;;;13.60;;
30185;SDS011;31152;49.190;8.122;2022-11-20T02:55:59;26.15;;;13.20;;
30185;SDS011;31152;49.190;8.122;2022-11-20T02:58:28;27.65;;;13.07;;
30185;SDS011;31152;49.190;8.122;2022-11-20T03:00:57;28.13;;;13.95;;
30185;SDS011;31152;49.190;8.122;2022-11-20T03:03:23;29.90;;;13.77;;
30185;SDS011;31152;49.190;8.122;2022-11-20T03:05:50;25.73;;;13.40;;
30185;SDS011;31152;49.190;8.122;2022-11-20T03:08:17;26.15;;;13.77;;
30185;SDS011;31152;49.190;8.122;2022-11-20T03:10:43;23.80;;;13.30;;
30185;SDS011;31152;49.190;8.122;2022-11-20T03:13:10;24.65;;;13.90;;
30185;SDS011;31152;49.190;8.122;2022-11-20T03:15:37;26.58;;;12.90;;
30185;SDS011;31152;49.190;8.122;2022-11-20T03:18:03;24.35;;;13.52;;
30185;SDS011;31152;49.190;8.122;2022-11-20T03:20:33;25.92;;;13.40;;
30185;SDS011;31152;49.190;8.122;2022-11-20T03:23:02;28.27;;;14.13;;
30185;SDS011;31152;49.190;8.122;2022-11-20T03:25:29;25.67;;;13.25;;
30185;SDS011;31152;49.190;8.122;2022-11-20T03:27:58;25.67;;;13.48;;
30185;SDS011;31152;49.190;8.122;2022-11-20T03:30:24;25.40;;;12.82;;
30185;SDS011;31152;49.190;8.122;2022-11-20T03:32:56;25.88;;;13.88;;
30185;SDS011;31152;49.190;8.122;2022-11-20T03:35:22;24.67;;;12.43;;
30185;SDS011;31152;49.190;8.122;2022-11-20T03:37:49;22.95;;;12.80;;
30185;SDS011;31152;49.190;8.122;2022-11-20T03:40:16;24.67;;;12.13;;
30185;SDS011;31152;49.190;8.122;2022-11-20T03:42:45;19.95;;;10.93;;
30185;SDS011;31152;49.190;8.122;2022-11-20T03:45:15;19.60;;;10.80;;
30185;SDS011;31152;49.190;8.122;2022-11-20T03:47:43;16.00;;;8.30;;
30185;SDS011;31152;49.190;8.122;2022-11-20T03:50:11;14.77;;;9.18;;
30185;SDS011;31152;49.190;8.122;2022-11-20T03:52:39;14.40;;;7.72;;
30185;SDS011;31152;49.190;8.122;2022-11-20T03:55:08;11.60;;;6.95;;
30185;SDS011;31152;49.190;8.122;2022-11-20T03:57:38;9.57;;;6.28;;
30185;SDS011;31152;49.190;8.122;2022-11-20T04:00:05;11.55;;;6.40;;
30185;SDS011;31152;49.190;8.122;2022-11-20T04:02:32;13.38;;;6.22;;
30185;SDS011;31152;49.190;8.122;2022-11-20T04:05:01;10.23;;;5.70;;
30185;SDS011;31152;49.190;8.122;2022-11-20T04:07:28;10.63;;;5.47;;
30185;SDS011;31152;49.190;8.122;2022-11-20T04:09:54;9.55;;;4.90;;
30185;SDS011;31152;49.190;8.122;2022-11-20T04:12:21;7.82;;;4.80;;
30185;SDS011;31152;49.190;8.122;2022-11-20T04:14:48;8.55;;;4.60;;
30185;SDS011;31152;49.190;8.122;2022-11-20T04:17:14;9.35;;;4.93;;
30185;SDS011;31152;49.190;8.122;2022-11-20T04:19:41;6.68;;;4.28;;
30185;SDS011;31152;49.190;8.122;2022-11-20T04:22:08;7.32;;;4.60;;
30185;SDS011;31152;49.190;8.122;2022-11-20T04:24:34;11.63;;;5.63;;
30185;SDS011;31152;49.190;8.122;2022-11-20T04:27:01;11.85;;;6.28;;
30185;SDS011;31152;49.190;8.122;2022-11-20T04:29:30;12.25;;;7.32;;
30185;SDS011;31152;49.190;8.122;2022-11-20T04:31:57;12.63;;;7.13;;
30185;SDS011;31152;49.190;8.122;2022-11-20T04:34:26;13.93;;;7.05;;
30185;SDS011;31152;49.190;8.122;2022-11-20T04:36:57;11.98;;;6.82;;
30185;SDS011;31152;49.190;8.122;2022-11-20T04:39:24;14.30;;;6.95;;
30185;SDS011;31152;49.190;8.122;2022-11-20T04:41:51;14.93;;;6.75;;
30185;SDS011;31152;49.190;8.122;2022-11-20T04:44:37;11.18;;;6.32;;
30185;SDS011;31152;49.190;8.122;2022-11-20T04:47:07;11.05;;;5.25;;
30185;SDS011;31152;49.190;8.122;2022-11-20T04:49:33;7.45;;;4.72;;
30185;SDS011;31152;49.190;8.122;2022-11-20T04:52:00;7.35;;;4.65;;
30185;SDS011;31152;49.190;8.122;2022-11-20T04:54:29;6.50;;;3.75;;
30185;SDS011;31152;49.190;8.122;2022-11-20T04:56:58;8.88;;;4.30;;
30185;SDS011;31152;49.190;8.122;2022-11-20T04:59:25;6.28;;;3.38;;
30185;SDS011;31152;49.190;8.122;2022-11-20T05:01:52;7.97;;;3.53;;
30185;SDS011;31152;49.190;8.122;2022-11-20T05:04:18;7.00;;;4.00;;
30185;SDS011;31152;49.190;8.122;2022-11-20T05:06:45;8.23;;;3.85;;
30185;SDS011;31152;49.190;8.122;2022-11-20T05:09:12;8.73;;;3.65;;
30185;SDS011;31152;49.190;8.122;2022-11-20T05:11:39;8.70;;;3.33;;
30185;SDS011;31152;49.190;8.122;2022-11-20T05:14:08;5.90;;;3.60;;
30185;SDS011;31152;49.190;8.122;2022-11-20T05:16:37;9.25;;;3.38;;
30185;SDS011;31152;49.190;8.122;2022-11-20T05:19:03;6.40;;;3.35;;
30185;SDS011;31152;49.190;8.122;2022-11-20T05:21:30;6.18;;;3.17;;
30185;SDS011;31152;49.190;8.122;2022-11-20T05:24:00;5.07;;;3.47;;
30185;SDS011;31152;49.190;8.122;2022-11-20T05:26:27;7.70;;;3.53;;
30185;SDS011;31152;49.190;8.122;2022-11-20T05:28:56;7.78;;;3.50;;
30185;SDS011;31152;49.190;8.122;2022-11-20T05:31:23;5.13;;;3.92;;
30185;SDS011;31152;49.190;8.122;2022-11-20T05:33:54;11.32;;;4.30;;
30185;SDS011;31152;49.190;8.122;2022-11-20T05:36:24;7.45;;;4.15;;
30185;SDS011;31152;49.190;8.122;2022-11-20T05:38:54;9.05;;;3.97;;
30185;SDS011;31152;49.190;8.122;2022-11-20T05:41:29;9.30;;;4.35;;
30185;SDS011;31152;49.190;8.122;2022-11-20T05:43:56;6.05;;;4.22;;
30185;SDS011;31152;49.190;8.122;2022-11-20T05:46:25;6.32;;;4.20;;
30185;SDS011;31152;49.190;8.122;2022-11-20T05:48:54;9.68;;;4.78;;
30185;SDS011;31152;49.190;8.122;2022-11-20T05:51:22;6.75;;;4.00;;
30185;SDS011;31152;49.190;8.122;2022-11-20T05:53:50;6.70;;;4.38;;
30185;SDS011;31152;49.190;8.122;2022-11-20T05:56:20;8.82;;;3.92;;
30185;SDS011;31152;49.190;8.122;2022-11-20T05:58:51;7.15;;;3.72;;
30185;SDS011;31152;49.190;8.122;2022-11-20T06:01:19;12.57;;;4.15;;
30185;SDS011;31152;49.190;8.122;2022-11-20T06:03:48;7.63;;;4.80;;
30185;SDS011;31152;49.190;8.122;2022-11-20T06:06:17;5.80;;;4.15;;
30185;SDS011;31152;49.190;8.122;2022-11-20T06:08:44;5.57;;;3.78;;
30185;SDS011;31152;49.190;8.122;2022-11-20T06:11:12;6.78;;;3.50;;
30185;SDS011;31152;49.190;8.122;2022-11-20T06:13:40;9.52;;;4.40;;
30185;SDS011;31152;49.190;8.122;2022-11-20T06:16:08;10.95;;;5.32;;
30185;SDS011;31152;49.190;8.122;2022-11-20T06:18:38;8.98;;;3.80;;
30185;SDS011;31152;49.190;8.122;2022-11-20T06:21:09;5.38;;;3.55;;
30185;SDS011;31152;49.190;8.122;2022-11-20T06:23:38;6.20;;;3.90;;
30185;SDS011;31152;49.190;8.122;2022-11-20T06:26:06;6.95;;;3.47;;
30185;SDS011;31152;49.190;8.122;2022-11-20T06:28:37;6.13;;;3.50;;
30185;SDS011;31152;49.190;8.122;2022-11-20T06:31:04;6.50;;;3.33;;
30185;SDS011;31152;49.190;8.122;2022-11-20T06:33:32;4.80;;;3.60;;
30185;SDS011;31152;49.190;8.122;2022-11-20T06:35:59;5.38;;;3.25;;
30185;SDS011;31152;49.190;8.122;2022-11-20T06:38:35;6.45;;;3.55;;
30185;SDS011;31152;49.190;8.122;2022-11-20T06:41:02;7.57;;;2.78;;
30185;SDS011;31152;49.190;8.122;2022-11-20T06:43:30;4.80;;;3.00;;
30185;SDS011;31152;49.190;8.122;2022-11-20T06:45:57;7.13;;;2.72;;
30185;SDS011;31152;49.190;8.122;2022-11-20T06:48:26;3.58;;;2.60;;
30185;SDS011;31152;49.190;8.122;2022-11-20T06:50:53;3.85;;;2.80;;
30185;SDS011;31152;49.190;8.122;2022-11-20T06:53:20;5.90;;;3.63;;
30185;SDS011;31152;49.190;8.122;2022-11-20T06:55:48;5.00;;;3.25;;
30185;SDS011;31152;49.190;8.122;2022-11-20T06:58:15;8.13;;;3.45;;
30185;SDS011;31152;49.190;8.122;2022-11-20T07:00:43;5.70;;;3.35;;
30185;SDS011;31152;49.190;8.122;2022-11-20T07:03:10;7.22;;;3.60;;
30185;SDS011;31152;49.190;8.122;2022-11-20T07:05:38;6.05;;;4.53;;
30185;SDS011;31152;49.190;8.122;2022-11-20T07:08:07;5.65;;;3.70;;
30185;SDS011;31152;49.190;8.122;2022-11-20T07:10:34;5.47;;;3.58;;
30185;SDS011;31152;49.190;8.122;2022-11-20T07:13:02;8.23;;;4.03;;
30185;SDS011;31152;49.190;8.122;2022-11-20T07:15:29;6.53;;;3.95;;
30185;SDS011;31152;49.190;8.122;2022-11-20T07:17:58;12.98;;;4.57;;
30185;SDS011;31152;49.190;8.122;2022-11-20T07:20:26;6.07;;;3.78;;
30185;SDS011;31152;49.190;8.122;2022-11-20T07:22:58;5.97;;;3.75;;
30185;SDS011;31152;49.190;8.122;2022-11-20T07:25:27;9.32;;;5.28;;
30185;SDS011;31152;49.190;8.122;2022-11-20T07:27:58;6.18;;;4.35;;
30185;SDS011;31152;49.190;8.122;2022-11-20T07:30:28;8.25;;;4.70;;
30185;SDS011;31152;49.190;8.122;2022-11-20T07:32:55;7.10;;;4.13;;
30185;SDS011;31152;49.190;8.122;2022-11-20T07:35:23;6.38;;;3.95;;
30185;SDS011;31152;49.190;8.122;2022-11-20T07:37:53;6.57;;;3.90;;
30185;SDS011;31152;49.190;8.122;2022-11-20T07:40:22;5.68;;;3.55;;
30185;SDS011;31152;49.190;8.122;2022-11-20T07:45:16;4.78;;;3.17;;
30185;SDS011;31152;49.190;8.122;2022-11-20T07:47:44;5.50;;;3.33;;
30185;SDS011;31152;49.190;8.122;2022-11-20T07:50:11;4.10;;;2.97;;
30185;SDS011;31152;49.190;8.122;2022-11-20T07:52:41;4.22;;;3.13;;
30185;SDS011;31152;49.190;8.122;2022-11-20T07:55:08;5.03;;;3.20;;
30185;SDS011;31152;49.190;8.122;2022-11-20T07:57:38;7.18;;;3.65;;
30185;SDS011;31152;49.190;8.122;2022-11-20T08:00:05;4.40;;;3.28;;
30185;SDS011;31152;49.190;8.122;2022-11-20T08:02:41;5.40;;;3.88;;
30185;SDS011;31152;49.190;8.122;2022-11-20T08:05:09;6.47;;;3.30;;
30185;SDS011;31152;49.190;8.122;2022-11-20T08:07:36;6.88;;;3.70;;
30185;SDS011;31152;49.190;8.122;2022-11-20T08:10:04;7.25;;;3.97;;
30185;SDS011;31152;49.190;8.122;2022-11-20T08:12:32;6.10;;;4.22;;
30185;SDS011;31152;49.190;8.122;2022-11-20T08:15:17;8.88;;;4.20;;
30185;SDS011;31152;49.190;8.122;2022-11-20T08:17:44;7.80;;;4.88;;
30185;SDS011;31152;49.190;8.122;2022-11-20T08:20:31;7.45;;;3.97;;
30185;SDS011;31152;49.190;8.122;2022-11-20T08:23:02;6.60;;;4.28;;
30185;SDS011;31152;49.190;8.122;2022-11-20T08:25:31;7.43;;;3.97;;
30185;SDS011;31152;49.190;8.122;2022-11-20T08:28:03;6.05;;;4.05;;
30185;SDS011;31152;49.190;8.122;2022-11-20T08:30:45;7.68;;;4.30;;
30185;SDS011;31152;49.190;8.122;2022-11-20T08:33:12;4.55;;;3.65;;
30185;SDS011;31152;49.190;8.122;2022-11-20T08:35:39;6.32;;;3.70;;
30185;SDS011;31152;49.190;8.122;2022-11-20T08:38:07;5.55;;;3.60;;
30185;SDS011;31152;49.190;8.122;2022-11-20T08:40:35;7.45;;;3.90;;
30185;SDS011;31152;49.190;8.122;2022-11-20T08:43:04;5.30;;;3.55;;
30185;SDS011;31152;49.190;8.122;2022-11-20T08:45:33;6.05;;;3.70;;
30185;SDS011;31152;49.190;8.122;2022-11-20T08:48:01;4.93;;;3.33;;
30185;SDS011;31152;49.190;8.122;2022-11-20T08:50:28;6.10;;;3.47;;
30185;SDS011;31152;49.190;8.122;2022-11-20T08:53:02;4.88;;;3.38;;
30185;SDS011;31152;49.190;8.122;2022-11-20T08:55:32;5.85;;;3.22;;
30185;SDS011;31152;49.190;8.122;2022-11-20T08:58:04;4.07;;;2.90;;
30185;SDS011;31152;49.190;8.122;2022-11-20T09:00:32;5.22;;;3.15;;
30185;SDS011;31152;49.190;8.122;2022-11-20T09:03:00;4.35;;;2.75;;
30185;SDS011;31152;49.190;8.122;2022-11-20T09:05:27;4.45;;;2.50;;
30185;SDS011;31152;49.190;8.122;2022-11-20T09:07:58;4.53;;;2.42;;
30185;SDS011;31152;49.190;8.122;2022-11-20T09:10:26;4.68;;;2.00;;
30185;SDS011;31152;49.190;8.122;2022-11-20T09:12:53;3.78;;;1.88;;
30185;SDS011;31152;49.190;8.122;2022-11-20T09:15:21;3.20;;;2.22;;
30185;SDS011;31152;49.190;8.122;2022-11-20T09:17:52;5.22;;;2.20;;
30185;SDS011;31152;49.190;8.122;2022-11-20T09:20:25;4.13;;;3.00;;
30185;SDS011;31152;49.190;8.122;2022-11-20T09:22:52;2.45;;;2.08;;
30185;SDS011;31152;49.190;8.122;2022-11-20T09:25:19;4.13;;;2.40;;
30185;SDS011;31152;49.190;8.122;2022-11-20T09:27:46;3.40;;;2.25;;
30185;SDS011;31152;49.190;8.122;2022-11-20T09:30:13;3.22;;;2.13;;
30185;SDS011;31152;49.190;8.122;2022-11-20T09:32:41;4.28;;;2.35;;
30185;SDS011;31152;49.190;8.122;2022-11-20T09:35:10;2.58;;;2.00;;
30185;SDS011;31152;49.190;8.122;2022-11-20T09:37:40;4.05;;;1.60;;
30185;SDS011;31152;49.190;8.122;2022-11-20T09:40:06;1.90;;;1.13;;
30185;SDS011;31152;49.190;8.122;2022-11-20T09:45:54;1.08;;;0.95;;
30185;SDS011;31152;49.190;8.122;2022-11-20T09:56:34;2.97;;;1.90;;
30185;SDS011;31152;49.190;8.122;2022-11-20T10:01:40;4.88;;;1.95;;
30185;SDS011;31152;49.190;8.122;2022-11-20T10:04:15;3.85;;;2.22;;
30185;SDS011;31152;49.190;8.122;2022-11-20T10:09:40;6.05;;;2.30;;
30185;SDS011;31152;49.190;8.122;2022-11-20T10:12:42;3.40;;;2.40;;
30185;SDS011;31152;49.190;8.122;2022-11-20T10:15:20;5.20;;;2.05;;
30185;SDS011;31152;49.190;8.122;2022-11-20T10:17:58;6.40;;;2.20;;
30185;SDS011;31152;49.190;8.122;2022-11-20T10:20:46;8.55;;;2.38;;
30185;SDS011;31152;49.190;8.122;2022-11-20T10:31:47;6.10;;;2.20;;
30185;SDS011;31152;49.190;8.122;2022-11-20T10:34:20;4.53;;;2.00;;
30185;SDS011;31152;49.190;8.122;2022-11-20T10:37:11;7.85;;;2.00;;
30185;SDS011;31152;49.190;8.122;2022-11-20T10:39:54;6.20;;;1.63;;
30185;SDS011;31152;49.190;8.122;2022-11-20T10:42:44;3.58;;;1.50;;
30185;SDS011;31152;49.190;8.122;2022-11-20T10:48:23;5.35;;;2.15;;
30185;SDS011;31152;49.190;8.122;2022-11-20T10:51:15;5.68;;;1.65;;
30185;SDS011;31152;49.190;8.122;2022-11-20T10:56:21;6.57;;;1.60;;
30185;SDS011;31152;49.190;8.122;2022-11-20T11:01:42;3.05;;;1.45;;
30185;SDS011;31152;49.190;8.122;2022-11-20T11:04:15;5.00;;;1.60;;
30185;SDS011;31152;49.190;8.122;2022-11-20T11:06:58;7.38;;;1.75;;
30185;SDS011;31152;49.190;8.122;2022-11-20T11:09:54;3.85;;;1.80;;
30185;SDS011;31152;49.190;8.122;2022-11-20T11:12:23;6.85;;;1.92;;
30185;SDS011;31152;49.190;8.122;2022-11-20T11:14:52;4.97;;;2.00;;
30185;SDS011;31152;49.190;8.122;2022-11-20T11:17:26;6.60;;;1.85;;
30185;SDS011;31152;49.190;8.122;2022-11-20T11:22:43;6.90;;;1.60;;
30185;SDS011;31152;49.190;8.122;2022-11-20T11:25:29;7.53;;;1.70;;
30185;SDS011;31152;49.190;8.122;2022-11-20T11:28:01;6.07;;;1.63;;
30185;SDS011;31152;49.190;8.122;2022-11-20T11:30:28;3.85;;;1.60;;
30185;SDS011;31152;49.190;8.122;2022-11-20T11:33:08;4.25;;;1.60;;
30185;SDS011;31152;49.190;8.122;2022-11-20T11:35:47;5.43;;;1.63;;
30185;SDS011;31152;49.190;8.122;2022-11-20T11:38:27;6.05;;;1.48;;
30185;SDS011;31152;49.190;8.122;2022-11-20T11:41:01;5.20;;;1.52;;
30185;SDS011;31152;49.190;8.122;2022-11-20T11:43:35;11.40;;;2.13;;
30185;SDS011;31152;49.190;8.122;2022-11-20T11:46:34;8.10;;;1.83;;
30185;SDS011;31152;49.190;8.122;2022-11-20T11:54:23;8.30;;;1.70;;
30185;SDS011;31152;49.190;8.122;2022-11-20T12:02:37;3.33;;;1.27;;
30185;SDS011;31152;49.190;8.122;2022-11-20T12:05:20;7.63;;;1.70;;
30185;SDS011;31152;49.190;8.122;2022-11-20T12:10:46;7.07;;;1.35;;
30185;SDS011;31152;49.190;8.122;2022-11-20T12:13:20;6.05;;;1.67;;
30185;SDS011;31152;49.190;8.122;2022-11-20T12:16:03;5.80;;;1.63;;
30185;SDS011;31152;49.190;8.122;2022-11-20T12:18:30;3.65;;;1.70;;
30185;SDS011;31152;49.190;8.122;2022-11-20T12:29:22;4.30;;;1.23;;
30185;SDS011;31152;49.190;8.122;2022-11-20T12:43:26;5.05;;;1.70;;
30185;SDS011;31152;49.190;8.122;2022-11-20T12:51:49;5.72;;;1.27;;
30185;SDS011;31152;49.190;8.122;2022-11-20T12:57:36;3.78;;;1.05;;
30185;SDS011;31152;49.190;8.122;2022-11-20T13:00:15;3.13;;;1.02;;
30185;SDS011;31152;49.190;8.122;2022-11-20T13:05:43;4.28;;;1.10;;
30185;SDS011;31152;49.190;8.122;2022-11-20T13:08:18;5.15;;;1.20;;
30185;SDS011;31152;49.190;8.122;2022-11-20T13:11:05;3.35;;;0.93;;
30185;SDS011;31152;49.190;8.122;2022-11-20T13:14:07;3.78;;;1.05;;
30185;SDS011;31152;49.190;8.122;2022-11-20T13:17:05;4.50;;;1.58;;
30185;SDS011;31152;49.190;8.122;2022-11-20T13:22:08;3.53;;;1.23;;
30185;SDS011;31152;49.190;8.122;2022-11-20T13:24:35;3.88;;;0.90;;
30185;SDS011;31152;49.190;8.122;2022-11-20T13:29:45;4.45;;;0.98;;
30185;SDS011;31152;49.190;8.122;2022-11-20T13:32:24;3.17;;;0.90;;
30185;SDS011;31152;49.190;8.122;2022-11-20T13:34:52;4.00;;;1.13;;
30185;SDS011;31152;49.190;8.122;2022-11-20T13:37:28;3.55;;;1.00;;
30185;SDS011;31152;49.190;8.122;2022-11-20T13:42:38;6.80;;;1.00;;
30185;SDS011;31152;49.190;8.122;2022-11-20T13:45:27;5.40;;;1.00;;
30185;SDS011;31152;49.190;8.122;2022-11-20T13:47:56;6.65;;;1.00;;
30185;SDS011;31152;49.190;8.122;2022-11-20T13:50:40;5.28;;;1.02;;
30185;SDS011;31152;49.190;8.122;2022-11-20T13:53:30;5.55;;;1.20;;
30185;SDS011;31152;49.190;8.122;2022-11-20T13:56:11;3.03;;;0.60;;
30185;SDS011;31152;49.190;8.122;2022-11-20T13:58:53;4.65;;;0.98;;
30185;SDS011;31152;49.190;8.122;2022-11-20T14:01:37;9.38;;;1.00;;
30185;SDS011;31152;49.190;8.122;2022-11-20T14:04:11;4.80;;;1.17;;
30185;SDS011;31152;49.190;8.122;2022-11-20T14:06:45;2.40;;;1.00;;
30185;SDS011;31152;49.190;8.122;2022-11-20T14:09:33;6.47;;;1.25;;
30185;SDS011;31152;49.190;8.122;2022-11-20T14:12:01;4.20;;;1.00;;
30185;SDS011;31152;49.190;8.122;2022-11-20T14:14:29;3.55;;;0.98;;
30185;SDS011;31152;49.190;8.122;2022-11-20T14:17:09;3.08;;;0.90;;
30185;SDS011;31152;49.190;8.122;2022-11-20T14:19:49;2.90;;;0.90;;
30185;SDS011;31152;49.190;8.122;2022-11-20T14:22:24;5.57;;;1.00;;
30185;SDS011;31152;49.190;8.122;2022-11-20T14:27:38;4.47;;;0.82;;
30185;SDS011;31152;49.190;8.122;2022-11-20T14:30:12;3.83;;;1.00;;
30185;SDS011;31152;49.190;8.122;2022-11-20T14:32:45;6.35;;;1.63;;
30185;SDS011;31152;49.190;8.122;2022-11-20T14:35:23;7.13;;;0.93;;
30185;SDS011;31152;49.190;8.122;2022-11-20T14:37:55;6.68;;;0.93;;
30185;SDS011;31152;49.190;8.122;2022-11-20T14:40:27;2.78;;;0.77;;
30185;SDS011;31152;49.190;8.122;2022-11-20T14:42:56;3.67;;;0.70;;
30185;SDS011;31152;49.190;8.122;2022-11-20T14:45:24;4.53;;;0.77;;
30185;SDS011;31152;49.190;8.122;2022-11-20T14:47:52;4.40;;;0.75;;
30185;SDS011;31152;49.190;8.122;2022-11-20T14:50:25;2.53;;;0.85;;
30185;SDS011;31152;49.190;8.122;2022-11-20T14:52:58;4.82;;;1.00;;
30185;SDS011;31152;49.190;8.122;2022-11-20T14:57:59;2.97;;;0.80;;
30185;SDS011;31152;49.190;8.122;2022-11-20T15:00:28;3.28;;;0.70;;
30185;SDS011;31152;49.190;8.122;2022-11-20T15:02:56;1.35;;;0.50;;
30185;SDS011;31152;49.190;8.122;2022-11-20T15:05:24;7.82;;;1.17;;
30185;SDS011;31152;49.190;8.122;2022-11-20T15:08:09;4.00;;;0.90;;
30185;SDS011;31152;49.190;8.122;2022-11-20T15:10:37;4.22;;;0.82;;
30185;SDS011;31152;49.190;8.122;2022-11-20T15:13:24;4.05;;;0.73;;
30185;SDS011;31152;49.190;8.122;2022-11-20T15:15:54;7.72;;;1.05;;
30185;SDS011;31152;49.190;8.122;2022-11-20T15:18:37;3.53;;;1.17;;
30185;SDS011;31152;49.190;8.122;2022-11-20T15:21:11;3.45;;;0.70;;
30185;SDS011;31152;49.190;8.122;2022-11-20T15:23:39;5.22;;;1.33;;
30185;SDS011;31152;49.190;8.122;2022-11-20T15:26:06;2.20;;;0.88;;
30185;SDS011;31152;49.190;8.122;2022-11-20T15:28:44;3.22;;;1.20;;
30185;SDS011;31152;49.190;8.122;2022-11-20T15:31:14;2.85;;;1.10;;
30185;SDS011;31152;49.190;8.122;2022-11-20T15:33:43;5.13;;;1.33;;
30185;SDS011;31152;49.190;8.122;2022-11-20T15:36:10;3.78;;;0.93;;
30185;SDS011;31152;49.190;8.122;2022-11-20T15:38:36;2.45;;;0.85;;
30185;SDS011;31152;49.190;8.122;2022-11-20T15:41:04;4.80;;;1.08;;
30185;SDS011;31152;49.190;8.122;2022-11-20T15:43:31;5.00;;;1.40;;
30185;SDS011;31152;49.190;8.122;2022-11-20T15:45:59;3.42;;;1.10;;
30185;SDS011;31152;49.190;8.122;2022-11-20T15:51:29;4.38;;;1.10;;
30185;SDS011;31152;49.190;8.122;2022-11-20T15:53:59;5.93;;;1.73;;
30185;SDS011;31152;49.190;8.122;2022-11-20T15:56:26;4.40;;;1.05;;
30185;SDS011;31152;49.190;8.122;2022-11-20T15:58:55;3.75;;;0.90;;
30185;SDS011;31152;49.190;8.122;2022-11-20T16:01:24;4.63;;;1.40;;
30185;SDS011;31152;49.190;8.122;2022-11-20T16:03:54;3.15;;;1.38;;
30185;SDS011;31152;49.190;8.122;2022-11-20T16:06:23;5.90;;;1.10;;
30185;SDS011;31152;49.190;8.122;2022-11-20T16:08:50;3.08;;;1.08;;
30185;SDS011;31152;49.190;8.122;2022-11-20T16:11:17;6.57;;;1.20;;
30185;SDS011;31152;49.190;8.122;2022-11-20T16:13:44;7.55;;;1.50;;
30185;SDS011;31152;49.190;8.122;2022-11-20T16:16:33;5.85;;;1.80;;
30185;SDS011;31152;49.190;8.122;2022-11-20T16:19:02;4.60;;;1.08;;
30185;SDS011;31152;49.190;8.122;2022-11-20T16:21:29;5.15;;;1.55;;
30185;SDS011;31152;49.190;8.122;2022-11-20T16:24:01;4.72;;;1.65;;
30185;SDS011;31152;49.190;8.122;2022-11-20T16:26:30;7.13;;;1.43;;
30185;SDS011;31152;49.190;8.122;2022-11-20T16:28:58;6.65;;;1.88;;
30185;SDS011;31152;49.190;8.122;2022-11-20T16:31:26;10.10;;;1.65;;
30185;SDS011;31152;49.190;8.122;2022-11-20T16:33:53;6.50;;;1.30;;
30185;SDS011;31152;49.190;8.122;2022-11-20T16:36:24;7.00;;;1.63;;
30185;SDS011;31152;49.190;8.122;2022-11-20T16:38:54;9.00;;;2.00;;
30185;SDS011;31152;49.190;8.122;2022-11-20T16:41:22;5.28;;;1.50;;
30185;SDS011;31152;49.190;8.122;2022-11-20T16:43:52;4.10;;;1.80;;
30185;SDS011;31152;49.190;8.122;2022-11-20T16:46:23;4.13;;;2.15;;
30185;SDS011;31152;49.190;8.122;2022-11-20T16:48:53;6.50;;;2.05;;